sensor_id;sensor_type;location;lat;lon;timestamp;pressure;altitude;pressure_sealevel;temperature;humidity
55373;BME280;41249;47.838;16.490;2022-12-29T00:01:33;99521.75;;;-3.78;78.27
55373;BME280;41249;47.838;16.490;2022-12-29T00:04:01;99517.09;;;-3.78;78.33
55373;BME280;41249;47.838;16.490;2022-12-29T00:06:27;99515.09;;;-3.86;78.09
55373;BME280;41249;47.838;16.490;2022-12-29T00:08:54;99522.34;;;-3.81;77.84
55373;BME280;41249;47.838;16.490;2022-12-29T00:11:25;99515.69;;;-3.89;78.95
55373;BME280;41249;47.838;16.490;2022-12-29T00:13:53;99520.38;;;-3.94;78.62
55373;BME280;41249;47.838;16.490;2022-12-29T00:16:42;99521.38;;;-4.04;79.54
55373;BME280;41249;47.838;16.490;2022-12-29T00:19:10;99513.22;;;-4.04;79.63
55373;BME280;41249;47.838;16.490;2022-12-29T00:21:57;99516.34;;;-4.10;78.58
55373;BME280;41249;47.838;16.490;2022-12-29T00:24:44;99514.22;;;-4.13;78.75
55373;BME280;41249;47.838;16.490;2022-12-29T00:27:19;99517.19;;;-4.15;79.19
55373;BME280;41249;47.838;16.490;2022-12-29T00:30:09;99513.91;;;-4.12;78.86
55373;BME280;41249;47.838;16.490;2022-12-29T00:32:55;99507.16;;;-4.14;79.95
55373;BME280;41249;47.838;16.490;2022-12-29T00:35:45;99509.94;;;-4.19;80.39
55373;BME280;41249;47.838;16.490;2022-12-29T00:38:13;99511.34;;;-4.22;80.55
55373;BME280;41249;47.838;16.490;2022-12-29T00:40:59;99519.81;;;-4.10;80.23
55373;BME280;41249;47.838;16.490;2022-12-29T00:43:44;99526.72;;;-3.99;80.29
55373;BME280;41249;47.838;16.490;2022-12-29T00:46:28;99538.13;;;-4.02;79.96
55373;BME280;41249;47.838;16.490;2022-12-29T00:48:55;99541.00;;;-4.12;79.59
55373;BME280;41249;47.838;16.490;2022-12-29T00:51:40;99538.88;;;-4.15;80.04
55373;BME280;41249;47.838;16.490;2022-12-29T00:54:07;99550.41;;;-4.23;79.79
55373;BME280;41249;47.838;16.490;2022-12-29T00:56:33;99559.69;;;-4.29;79.84
55373;BME280;41249;47.838;16.490;2022-12-29T00:59:02;99550.03;;;-4.35;81.08
55373;BME280;41249;47.838;16.490;2022-12-29T01:01:28;99551.78;;;-4.44;80.85
55373;BME280;41249;47.838;16.490;2022-12-29T01:03:55;99545.69;;;-4.55;81.60
55373;BME280;41249;47.838;16.490;2022-12-29T01:06:29;99540.66;;;-4.61;81.75
55373;BME280;41249;47.838;16.490;2022-12-29T01:08:55;99537.88;;;-4.56;81.87
55373;BME280;41249;47.838;16.490;2022-12-29T01:11:41;99539.28;;;-4.59;83.64
55373;BME280;41249;47.838;16.490;2022-12-29T01:14:08;99529.38;;;-4.68;83.05
55373;BME280;41249;47.838;16.490;2022-12-29T01:16:34;99537.84;;;-4.75;83.31
55373;BME280;41249;47.838;16.490;2022-12-29T01:19:03;99527.63;;;-4.59;83.86
55373;BME280;41249;47.838;16.490;2022-12-29T01:21:30;99523.84;;;-4.58;83.83
55373;BME280;41249;47.838;16.490;2022-12-29T01:23:56;99516.59;;;-4.63;83.75
55373;BME280;41249;47.838;16.490;2022-12-29T01:26:23;99520.53;;;-4.55;84.08
55373;BME280;41249;47.838;16.490;2022-12-29T01:28:49;99515.47;;;-4.43;84.00
55373;BME280;41249;47.838;16.490;2022-12-29T01:31:16;99520.44;;;-4.31;84.56
55373;BME280;41249;47.838;16.490;2022-12-29T01:33:43;99522.03;;;-4.12;84.70
55373;BME280;41249;47.838;16.490;2022-12-29T01:36:15;99526.69;;;-4.31;84.78
55373;BME280;41249;47.838;16.490;2022-12-29T01:38:42;99524.03;;;-4.55;85.15
55373;BME280;41249;47.838;16.490;2022-12-29T01:41:11;99518.38;;;-4.77;85.95
55373;BME280;41249;47.838;16.490;2022-12-29T01:43:47;99524.88;;;-4.96;85.92
55373;BME280;41249;47.838;16.490;2022-12-29T01:49:12;99525.34;;;-4.71;87.13
55373;BME280;41249;47.838;16.490;2022-12-29T01:51:46;99530.69;;;-4.47;87.91
55373;BME280;41249;47.838;16.490;2022-12-29T01:54:23;99529.09;;;-4.85;86.61
55373;BME280;41249;47.838;16.490;2022-12-29T01:56:52;99534.94;;;-4.78;88.15
55373;BME280;41249;47.838;16.490;2022-12-29T01:59:22;99518.28;;;-4.48;88.97
55373;BME280;41249;47.838;16.490;2022-12-29T02:01:51;99508.88;;;-4.74;86.74
55373;BME280;41249;47.838;16.490;2022-12-29T02:04:17;99510.91;;;-5.04;86.10
55373;BME280;41249;47.838;16.490;2022-12-29T02:06:57;99508.63;;;-5.15;85.71
55373;BME280;41249;47.838;16.490;2022-12-29T02:09:26;99511.94;;;-5.23;85.86
55373;BME280;41249;47.838;16.490;2022-12-29T02:11:53;99525.13;;;-5.17;87.30
55373;BME280;41249;47.838;16.490;2022-12-29T02:14:20;99532.91;;;-5.34;87.76
55373;BME280;41249;47.838;16.490;2022-12-29T02:17:09;99531.03;;;-4.91;88.51
55373;BME280;41249;47.838;16.490;2022-12-29T02:37:16;99510.56;;;-5.68;84.49
55373;BME280;41249;47.838;16.490;2022-12-29T02:42:45;99511.22;;;-5.81;85.20
55373;BME280;41249;47.838;16.490;2022-12-29T02:45:20;99511.78;;;-5.84;85.06
55373;BME280;41249;47.838;16.490;2022-12-29T02:47:54;99514.53;;;-5.89;85.26
55373;BME280;41249;47.838;16.490;2022-12-29T02:50:26;99504.06;;;-5.96;84.80
55373;BME280;41249;47.838;16.490;2022-12-29T02:53:08;99507.22;;;-5.89;85.60
55373;BME280;41249;47.838;16.490;2022-12-29T02:55:36;99502.13;;;-5.90;85.23
55373;BME280;41249;47.838;16.490;2022-12-29T03:00:39;99511.88;;;-5.94;85.19
55373;BME280;41249;47.838;16.490;2022-12-29T03:06:15;99521.47;;;-6.12;84.46
55373;BME280;41249;47.838;16.490;2022-12-29T03:11:19;99525.44;;;-5.99;84.47
55373;BME280;41249;47.838;16.490;2022-12-29T03:14:14;99527.38;;;-6.05;84.71
55373;BME280;41249;47.838;16.490;2022-12-29T03:17:08;99531.41;;;-6.02;85.09
55373;BME280;41249;47.838;16.490;2022-12-29T03:19:40;99525.28;;;-6.13;85.63
55373;BME280;41249;47.838;16.490;2022-12-29T03:22:20;99524.44;;;-6.08;85.80
55373;BME280;41249;47.838;16.490;2022-12-29T03:25:03;99523.16;;;-5.87;86.25
55373;BME280;41249;47.838;16.490;2022-12-29T03:27:36;99524.13;;;-5.73;84.55
55373;BME280;41249;47.838;16.490;2022-12-29T03:30:07;99522.03;;;-5.81;85.53
55373;BME280;41249;47.838;16.490;2022-12-29T03:32:42;99531.81;;;-5.85;85.40
55373;BME280;41249;47.838;16.490;2022-12-29T03:35:11;99526.88;;;-5.78;86.02
55373;BME280;41249;47.838;16.490;2022-12-29T03:37:43;99523.41;;;-5.84;85.17
55373;BME280;41249;47.838;16.490;2022-12-29T03:40:12;99526.78;;;-5.68;85.17
55373;BME280;41249;47.838;16.490;2022-12-29T03:42:40;99527.59;;;-5.68;85.49
55373;BME280;41249;47.838;16.490;2022-12-29T03:45:08;99541.06;;;-5.62;85.13
55373;BME280;41249;47.838;16.490;2022-12-29T03:47:35;99530.41;;;-5.54;85.88
55373;BME280;41249;47.838;16.490;2022-12-29T03:50:02;99532.44;;;-5.41;85.78
55373;BME280;41249;47.838;16.490;2022-12-29T03:52:28;99534.16;;;-5.26;85.80
55373;BME280;41249;47.838;16.490;2022-12-29T03:54:55;99533.47;;;-5.13;85.37
55373;BME280;41249;47.838;16.490;2022-12-29T03:57:21;99541.63;;;-4.94;85.51
55373;BME280;41249;47.838;16.490;2022-12-29T03:59:48;99530.53;;;-4.93;85.96
55373;BME280;41249;47.838;16.490;2022-12-29T04:02:15;99538.09;;;-4.34;87.68
55373;BME280;41249;47.838;16.490;2022-12-29T04:04:43;99545.78;;;-4.41;86.18
55373;BME280;41249;47.838;16.490;2022-12-29T04:07:10;99529.19;;;-4.53;85.64
55373;BME280;41249;47.838;16.490;2022-12-29T04:09:36;99527.19;;;-4.66;84.00
55373;BME280;41249;47.838;16.490;2022-12-29T04:12:03;99528.34;;;-4.72;83.96
55373;BME280;41249;47.838;16.490;2022-12-29T04:14:30;99522.06;;;-4.68;84.67
55373;BME280;41249;47.838;16.490;2022-12-29T04:16:56;99530.25;;;-4.54;85.36
55373;BME280;41249;47.838;16.490;2022-12-29T04:19:23;99522.63;;;-4.52;85.75
55373;BME280;41249;47.838;16.490;2022-12-29T04:21:50;99529.63;;;-4.46;85.23
55373;BME280;41249;47.838;16.490;2022-12-29T04:24:16;99537.16;;;-4.43;84.77
55373;BME280;41249;47.838;16.490;2022-12-29T04:26:44;99535.16;;;-4.38;85.49
55373;BME280;41249;47.838;16.490;2022-12-29T04:29:10;99534.81;;;-4.31;85.03
55373;BME280;41249;47.838;16.490;2022-12-29T04:31:37;99535.31;;;-4.29;85.17
55373;BME280;41249;47.838;16.490;2022-12-29T04:34:04;99517.34;;;-4.25;85.00
55373;BME280;41249;47.838;16.490;2022-12-29T04:36:30;99504.91;;;-4.26;85.87
55373;BME280;41249;47.838;16.490;2022-12-29T04:38:57;99509.31;;;-4.30;84.82
55373;BME280;41249;47.838;16.490;2022-12-29T04:41:24;99513.78;;;-4.20;85.30
55373;BME280;41249;47.838;16.490;2022-12-29T04:43:50;99520.78;;;-4.19;85.14
55373;BME280;41249;47.838;16.490;2022-12-29T04:46:17;99512.97;;;-4.21;85.85
55373;BME280;41249;47.838;16.490;2022-12-29T04:48:44;99520.78;;;-4.19;85.38
55373;BME280;41249;47.838;16.490;2022-12-29T04:51:10;99528.66;;;-4.18;85.67
55373;BME280;41249;47.838;16.490;2022-12-29T04:53:37;99526.41;;;-3.97;86.58
55373;BME280;41249;47.838;16.490;2022-12-29T04:56:03;99525.25;;;-4.10;85.59
55373;BME280;41249;47.838;16.490;2022-12-29T04:58:30;99532.69;;;-4.15;85.83
55373;BME280;41249;47.838;16.490;2022-12-29T05:00:57;99530.50;;;-4.00;85.65
55373;BME280;41249;47.838;16.490;2022-12-29T05:03:23;99530.16;;;-4.12;85.38
55373;BME280;41249;47.838;16.490;2022-12-29T05:05:53;99528.84;;;-4.14;85.88
55373;BME280;41249;47.838;16.490;2022-12-29T05:08:20;99533.47;;;-4.15;85.60
55373;BME280;41249;47.838;16.490;2022-12-29T05:10:53;99529.66;;;-4.14;86.07
55373;BME280;41249;47.838;16.490;2022-12-29T05:13:20;99535.25;;;-3.92;86.65
55373;BME280;41249;47.838;16.490;2022-12-29T05:15:53;99533.88;;;-3.89;85.68
55373;BME280;41249;47.838;16.490;2022-12-29T05:18:20;99532.31;;;-3.95;86.31
55373;BME280;41249;47.838;16.490;2022-12-29T05:20:46;99524.19;;;-3.95;85.62
55373;BME280;41249;47.838;16.490;2022-12-29T05:23:14;99541.19;;;-3.90;86.12
55373;BME280;41249;47.838;16.490;2022-12-29T05:25:40;99541.25;;;-3.62;87.03
55373;BME280;41249;47.838;16.490;2022-12-29T05:28:07;99549.31;;;-3.57;87.52
55373;BME280;41249;47.838;16.490;2022-12-29T05:30:34;99537.50;;;-3.34;88.70
55373;BME280;41249;47.838;16.490;2022-12-29T05:33:00;99545.53;;;-3.29;88.40
55373;BME280;41249;47.838;16.490;2022-12-29T05:35:27;99540.06;;;-3.56;87.73
55373;BME280;41249;47.838;16.490;2022-12-29T05:37:53;99548.22;;;-3.89;87.36
55373;BME280;41249;47.838;16.490;2022-12-29T05:40:20;99537.13;;;-4.06;86.94
55373;BME280;41249;47.838;16.490;2022-12-29T05:42:46;99541.81;;;-4.11;88.14
55373;BME280;41249;47.838;16.490;2022-12-29T05:45:13;99546.94;;;-4.10;87.31
55373;BME280;41249;47.838;16.490;2022-12-29T05:47:39;99550.25;;;-4.13;87.63
55373;BME280;41249;47.838;16.490;2022-12-29T05:50:06;99549.72;;;-4.15;87.93
55373;BME280;41249;47.838;16.490;2022-12-29T05:52:33;99551.03;;;-3.94;88.90
55373;BME280;41249;47.838;16.490;2022-12-29T05:55:00;99557.03;;;-3.97;88.04
55373;BME280;41249;47.838;16.490;2022-12-29T05:57:26;99553.97;;;-4.09;88.32
55373;BME280;41249;47.838;16.490;2022-12-29T05:59:53;99558.09;;;-4.11;87.90
55373;BME280;41249;47.838;16.490;2022-12-29T06:02:19;99565.69;;;-3.95;88.23
55373;BME280;41249;47.838;16.490;2022-12-29T06:04:46;99565.16;;;-3.97;88.58
55373;BME280;41249;47.838;16.490;2022-12-29T06:07:13;99555.91;;;-3.77;88.80
55373;BME280;41249;47.838;16.490;2022-12-29T06:09:39;99552.44;;;-3.50;89.62
55373;BME280;41249;47.838;16.490;2022-12-29T06:12:06;99552.91;;;-3.62;88.92
55373;BME280;41249;47.838;16.490;2022-12-29T06:14:33;99554.38;;;-3.51;88.79
55373;BME280;41249;47.838;16.490;2022-12-29T06:16:59;99547.81;;;-3.50;89.50
55373;BME280;41249;47.838;16.490;2022-12-29T06:19:26;99548.81;;;-3.59;88.75
55373;BME280;41249;47.838;16.490;2022-12-29T06:21:52;99547.81;;;-3.50;89.26
55373;BME280;41249;47.838;16.490;2022-12-29T06:24:20;99551.19;;;-3.12;89.71
55373;BME280;41249;47.838;16.490;2022-12-29T06:26:46;99550.28;;;-3.08;89.72
55373;BME280;41249;47.838;16.490;2022-12-29T06:29:13;99551.19;;;-3.12;89.65
55373;BME280;41249;47.838;16.490;2022-12-29T06:31:44;99562.72;;;-3.34;88.76
55373;BME280;41249;47.838;16.490;2022-12-29T06:34:12;99558.16;;;-3.65;88.43
55373;BME280;41249;47.838;16.490;2022-12-29T06:36:39;99559.16;;;-3.48;89.20
55373;BME280;41249;47.838;16.490;2022-12-29T06:39:05;99563.00;;;-3.49;89.77
55373;BME280;41249;47.838;16.490;2022-12-29T06:41:32;99571.59;;;-3.28;90.24
55373;BME280;41249;47.838;16.490;2022-12-29T06:43:59;99570.50;;;-3.14;90.26
55373;BME280;41249;47.838;16.490;2022-12-29T06:46:25;99566.84;;;-3.36;89.68
55373;BME280;41249;47.838;16.490;2022-12-29T06:48:52;99573.94;;;-3.54;89.64
55373;BME280;41249;47.838;16.490;2022-12-29T06:51:18;99568.88;;;-3.28;90.01
55373;BME280;41249;47.838;16.490;2022-12-29T06:53:45;99568.59;;;-3.13;91.04
55373;BME280;41249;47.838;16.490;2022-12-29T06:56:11;99583.75;;;-3.12;91.46
55373;BME280;41249;47.838;16.490;2022-12-29T06:58:38;99584.75;;;-3.08;91.21
55373;BME280;41249;47.838;16.490;2022-12-29T07:01:05;99573.50;;;-3.15;90.57
55373;BME280;41249;47.838;16.490;2022-12-29T07:03:31;99575.91;;;-3.27;91.15
55373;BME280;41249;47.838;16.490;2022-12-29T07:05:58;99564.34;;;-3.06;91.54
55373;BME280;41249;47.838;16.490;2022-12-29T07:08:25;99559.75;;;-3.19;91.01
55373;BME280;41249;47.838;16.490;2022-12-29T07:10:51;99588.41;;;-2.99;91.26
55373;BME280;41249;47.838;16.490;2022-12-29T07:13:18;99575.13;;;-2.87;91.45
55373;BME280;41249;47.838;16.490;2022-12-29T07:15:44;99575.31;;;-2.70;91.78
55373;BME280;41249;47.838;16.490;2022-12-29T07:18:11;99571.19;;;-2.54;91.52
55373;BME280;41249;47.838;16.490;2022-12-29T07:20:37;99574.28;;;-2.47;91.78
55373;BME280;41249;47.838;16.490;2022-12-29T07:23:04;99570.47;;;-2.73;91.46
55373;BME280;41249;47.838;16.490;2022-12-29T07:25:31;99581.78;;;-2.66;91.23
55373;BME280;41249;47.838;16.490;2022-12-29T07:27:57;99575.72;;;-2.90;91.28
55373;BME280;41249;47.838;16.490;2022-12-29T07:30:24;99575.31;;;-3.11;91.11
55373;BME280;41249;47.838;16.490;2022-12-29T07:32:50;99566.06;;;-3.10;91.77
55373;BME280;41249;47.838;16.490;2022-12-29T07:35:17;99569.56;;;-2.95;91.72
55373;BME280;41249;47.838;16.490;2022-12-29T07:37:43;99558.19;;;-2.70;92.36
55373;BME280;41249;47.838;16.490;2022-12-29T07:40:11;99549.44;;;-2.54;92.47
55373;BME280;41249;47.838;16.490;2022-12-29T07:42:37;99558.78;;;-2.60;92.53
55373;BME280;41249;47.838;16.490;2022-12-29T07:45:04;99567.44;;;-2.58;92.22
55373;BME280;41249;47.838;16.490;2022-12-29T07:47:31;99571.34;;;-2.36;92.44
55373;BME280;41249;47.838;16.490;2022-12-29T07:49:58;99568.47;;;-2.54;92.10
55373;BME280;41249;47.838;16.490;2022-12-29T07:52:24;99574.50;;;-2.57;91.88
55373;BME280;41249;47.838;16.490;2022-12-29T07:54:51;99585.66;;;-2.58;92.75
55373;BME280;41249;47.838;16.490;2022-12-29T07:57:18;99584.78;;;-2.67;92.59
55373;BME280;41249;47.838;16.490;2022-12-29T07:59:44;99587.69;;;-2.64;92.42
55373;BME280;41249;47.838;16.490;2022-12-29T08:02:11;99583.78;;;-2.85;92.47
55373;BME280;41249;47.838;16.490;2022-12-29T08:04:38;99587.81;;;-2.96;92.47
55373;BME280;41249;47.838;16.490;2022-12-29T08:07:05;99577.16;;;-3.06;92.04
55373;BME280;41249;47.838;16.490;2022-12-29T08:09:31;99581.53;;;-3.10;92.12
55373;BME280;41249;47.838;16.490;2022-12-29T08:11:58;99574.13;;;-3.18;92.67
55373;BME280;41249;47.838;16.490;2022-12-29T08:14:25;99582.34;;;-3.10;92.60
55373;BME280;41249;47.838;16.490;2022-12-29T08:16:51;99577.75;;;-3.09;92.22
55373;BME280;41249;47.838;16.490;2022-12-29T08:19:18;99582.03;;;-3.08;92.02
55373;BME280;41249;47.838;16.490;2022-12-29T08:21:45;99582.56;;;-3.06;91.91
55373;BME280;41249;47.838;16.490;2022-12-29T08:24:11;99573.91;;;-2.94;91.46
55373;BME280;41249;47.838;16.490;2022-12-29T08:26:38;99566.88;;;-2.95;91.47
55373;BME280;41249;47.838;16.490;2022-12-29T08:29:04;99569.69;;;-3.14;90.70
55373;BME280;41249;47.838;16.490;2022-12-29T08:31:31;99577.44;;;-3.21;90.23
55373;BME280;41249;47.838;16.490;2022-12-29T08:33:57;99570.56;;;-3.32;89.77
55373;BME280;41249;47.838;16.490;2022-12-29T08:36:26;99576.13;;;-3.24;89.37
55373;BME280;41249;47.838;16.490;2022-12-29T08:38:52;99585.75;;;-3.18;89.16
55373;BME280;41249;47.838;16.490;2022-12-29T08:41:19;99587.78;;;-3.23;88.07
55373;BME280;41249;47.838;16.490;2022-12-29T08:43:47;99587.38;;;-3.17;88.00
55373;BME280;41249;47.838;16.490;2022-12-29T08:46:14;99583.06;;;-3.04;88.19
55373;BME280;41249;47.838;16.490;2022-12-29T08:48:41;99575.22;;;-2.92;87.00
55373;BME280;41249;47.838;16.490;2022-12-29T08:51:08;99571.69;;;-2.92;86.75
55373;BME280;41249;47.838;16.490;2022-12-29T08:53:35;99567.88;;;-2.78;86.73
55373;BME280;41249;47.838;16.490;2022-12-29T08:56:02;99572.91;;;-2.71;85.90
55373;BME280;41249;47.838;16.490;2022-12-29T08:58:31;99572.59;;;-2.70;86.17
55373;BME280;41249;47.838;16.490;2022-12-29T09:00:59;99575.94;;;-3.14;85.53
55373;BME280;41249;47.838;16.490;2022-12-29T09:03:26;99569.84;;;-3.51;86.31
55373;BME280;41249;47.838;16.490;2022-12-29T09:06:15;99569.19;;;-3.62;85.46
55373;BME280;41249;47.838;16.490;2022-12-29T09:08:42;99576.25;;;-3.47;85.99
55373;BME280;41249;47.838;16.490;2022-12-29T09:11:11;99570.06;;;-3.34;86.09
55373;BME280;41249;47.838;16.490;2022-12-29T09:13:38;99574.72;;;-3.21;85.41
55373;BME280;41249;47.838;16.490;2022-12-29T09:16:05;99567.78;;;-3.14;85.58
55373;BME280;41249;47.838;16.490;2022-12-29T09:18:32;99574.00;;;-3.27;84.79
55373;BME280;41249;47.838;16.490;2022-12-29T09:21:03;99557.41;;;-3.25;85.26
55373;BME280;41249;47.838;16.490;2022-12-29T09:23:30;99566.03;;;-3.37;85.25
55373;BME280;41249;47.838;16.490;2022-12-29T09:25:57;99556.59;;;-3.39;84.91
55373;BME280;41249;47.838;16.490;2022-12-29T09:28:24;99562.84;;;-3.12;85.62
55373;BME280;41249;47.838;16.490;2022-12-29T09:30:52;99582.84;;;-3.08;84.56
55373;BME280;41249;47.838;16.490;2022-12-29T09:33:18;99576.22;;;-3.15;85.10
55373;BME280;41249;47.838;16.490;2022-12-29T09:35:50;99563.44;;;-3.28;84.46
55373;BME280;41249;47.838;16.490;2022-12-29T09:38:17;99569.28;;;-3.08;84.96
55373;BME280;41249;47.838;16.490;2022-12-29T09:40:49;99550.88;;;-2.83;85.18
55373;BME280;41249;47.838;16.490;2022-12-29T09:48:21;99533.47;;;-2.69;85.25
55373;BME280;41249;47.838;16.490;2022-12-29T09:50:55;99529.44;;;-2.71;84.96
55373;BME280;41249;47.838;16.490;2022-12-29T09:53:31;99538.09;;;-2.69;84.74
55373;BME280;41249;47.838;16.490;2022-12-29T09:56:01;99532.53;;;-2.78;85.01
55373;BME280;41249;47.838;16.490;2022-12-29T10:01:53;99529.00;;;-2.65;84.75
55373;BME280;41249;47.838;16.490;2022-12-29T10:04:26;99518.97;;;-2.78;85.38
55373;BME280;41249;47.838;16.490;2022-12-29T10:21:00;99509.41;;;-2.40;85.33
55373;BME280;41249;47.838;16.490;2022-12-29T10:23:33;99510.53;;;-2.41;85.62
55373;BME280;41249;47.838;16.490;2022-12-29T10:26:03;99502.88;;;-2.38;85.27
55373;BME280;41249;47.838;16.490;2022-12-29T10:29:36;99500.16;;;-2.38;85.61
55373;BME280;41249;47.838;16.490;2022-12-29T10:31:38;99499.72;;;-2.32;85.44
55373;BME280;41249;47.838;16.490;2022-12-29T10:34:21;99493.44;;;-2.41;86.15
55373;BME280;41249;47.838;16.490;2022-12-29T10:36:50;99495.75;;;-2.48;85.90
55373;BME280;41249;47.838;16.490;2022-12-29T10:41:54;99502.50;;;-2.95;85.42
55373;BME280;41249;47.838;16.490;2022-12-29T10:44:29;99498.56;;;-2.89;86.19
55373;BME280;41249;47.838;16.490;2022-12-29T10:47:05;99502.28;;;-2.85;86.36
55373;BME280;41249;47.838;16.490;2022-12-29T10:49:37;99497.53;;;-2.79;86.19
55373;BME280;41249;47.838;16.490;2022-12-29T10:52:06;99503.91;;;-2.84;86.31
55373;BME280;41249;47.838;16.490;2022-12-29T10:54:47;99498.63;;;-2.67;86.36
55373;BME280;41249;47.838;16.490;2022-12-29T10:57:35;99496.41;;;-2.65;85.64
55373;BME280;41249;47.838;16.490;2022-12-29T11:00:29;99493.19;;;-2.67;85.08
55373;BME280;41249;47.838;16.490;2022-12-29T11:03:27;99493.56;;;-2.60;85.97
55373;BME280;41249;47.838;16.490;2022-12-29T11:06:13;99500.00;;;-2.56;85.13
55373;BME280;41249;47.838;16.490;2022-12-29T11:08:51;99499.22;;;-2.70;85.57
55373;BME280;41249;47.838;16.490;2022-12-29T11:11:34;99498.81;;;-2.63;85.27
55373;BME280;41249;47.838;16.490;2022-12-29T11:14:18;99504.22;;;-2.50;85.27
55373;BME280;41249;47.838;16.490;2022-12-29T11:16:56;99498.91;;;-2.32;85.28
55373;BME280;41249;47.838;16.490;2022-12-29T11:19:27;99507.97;;;-2.23;85.30
55373;BME280;41249;47.838;16.490;2022-12-29T11:21:54;99500.94;;;-2.38;85.14
55373;BME280;41249;47.838;16.490;2022-12-29T11:24:23;99508.66;;;-2.54;84.62
55373;BME280;41249;47.838;16.490;2022-12-29T11:26:55;99508.94;;;-2.91;84.36
55373;BME280;41249;47.838;16.490;2022-12-29T11:29:39;99506.63;;;-3.11;85.11
55373;BME280;41249;47.838;16.490;2022-12-29T11:34:39;99502.50;;;-3.22;83.66
55373;BME280;41249;47.838;16.490;2022-12-29T11:37:11;99498.69;;;-3.21;83.99
55373;BME280;41249;47.838;16.490;2022-12-29T11:40:02;99504.41;;;-3.50;83.96
55373;BME280;41249;47.838;16.490;2022-12-29T11:42:39;99503.50;;;-3.59;83.61
55373;BME280;41249;47.838;16.490;2022-12-29T11:45:19;99509.91;;;-3.68;84.21
55373;BME280;41249;47.838;16.490;2022-12-29T11:47:56;99495.41;;;-3.78;83.10
55373;BME280;41249;47.838;16.490;2022-12-29T11:50:27;99510.13;;;-3.51;82.59
55373;BME280;41249;47.838;16.490;2022-12-29T11:53:03;99520.41;;;-3.48;82.50
55373;BME280;41249;47.838;16.490;2022-12-29T11:55:32;99497.56;;;-3.47;83.16
55373;BME280;41249;47.838;16.490;2022-12-29T11:58:01;99505.72;;;-3.47;82.67
55373;BME280;41249;47.838;16.490;2022-12-29T12:00:31;99494.34;;;-3.49;82.08
55373;BME280;41249;47.838;16.490;2022-12-29T12:03:20;99500.09;;;-3.51;82.09
55373;BME280;41249;47.838;16.490;2022-12-29T12:11:01;99483.19;;;-3.61;82.76
55373;BME280;41249;47.838;16.490;2022-12-29T12:16:25;99463.28;;;-3.71;82.92
55373;BME280;41249;47.838;16.490;2022-12-29T12:21:48;99469.28;;;-3.87;83.38
55373;BME280;41249;47.838;16.490;2022-12-29T12:26:59;99467.56;;;-3.97;83.91
55373;BME280;41249;47.838;16.490;2022-12-29T12:29:50;99462.63;;;-3.95;83.86
55373;BME280;41249;47.838;16.490;2022-12-29T12:40:43;99469.72;;;-3.53;83.66
55373;BME280;41249;47.838;16.490;2022-12-29T12:46:37;99454.75;;;-3.50;83.42
55373;BME280;41249;47.838;16.490;2022-12-29T12:52:26;99454.16;;;-3.47;82.81
55373;BME280;41249;47.838;16.490;2022-12-29T12:55:16;99449.94;;;-3.40;82.86
55373;BME280;41249;47.838;16.490;2022-12-29T13:00:27;99445.38;;;-3.17;82.44
55373;BME280;41249;47.838;16.490;2022-12-29T13:06:10;99436.50;;;-2.95;81.77
55373;BME280;41249;47.838;16.490;2022-12-29T13:15:04;99449.34;;;-2.74;81.85
55373;BME280;41249;47.838;16.490;2022-12-29T13:20:31;99429.72;;;-2.49;81.59
55373;BME280;41249;47.838;16.490;2022-12-29T13:26:08;99441.59;;;-2.45;81.64
55373;BME280;41249;47.838;16.490;2022-12-29T13:32:02;99440.25;;;-2.69;81.53
55373;BME280;41249;47.838;16.490;2022-12-29T13:34:43;99435.03;;;-2.66;82.31
55373;BME280;41249;47.838;16.490;2022-12-29T13:37:15;99440.75;;;-2.67;82.03
55373;BME280;41249;47.838;16.490;2022-12-29T13:40:14;99445.50;;;-2.73;82.01
55373;BME280;41249;47.838;16.490;2022-12-29T13:42:42;99449.13;;;-2.77;82.20
55373;BME280;41249;47.838;16.490;2022-12-29T13:45:21;99453.75;;;-2.78;82.01
55373;BME280;41249;47.838;16.490;2022-12-29T13:47:55;99446.16;;;-2.89;82.37
55373;BME280;41249;47.838;16.490;2022-12-29T13:50:26;99453.72;;;-3.00;82.20
55373;BME280;41249;47.838;16.490;2022-12-29T13:53:17;99436.91;;;-3.02;82.59
55373;BME280;41249;47.838;16.490;2022-12-29T13:56:16;99454.84;;;-3.01;82.47
55373;BME280;41249;47.838;16.490;2022-12-29T13:58:54;99453.44;;;-3.12;82.94
55373;BME280;41249;47.838;16.490;2022-12-29T14:01:33;99454.44;;;-3.22;83.00
55373;BME280;41249;47.838;16.490;2022-12-29T14:04:03;99456.97;;;-3.25;83.08
55373;BME280;41249;47.838;16.490;2022-12-29T14:06:36;99451.63;;;-3.17;83.34
55373;BME280;41249;47.838;16.490;2022-12-29T14:12:29;99459.50;;;-3.29;83.38
55373;BME280;41249;47.838;16.490;2022-12-29T14:17:36;99469.25;;;-3.41;83.94
55373;BME280;41249;47.838;16.490;2022-12-29T14:20:06;99461.69;;;-3.44;83.67
55373;BME280;41249;47.838;16.490;2022-12-29T14:23:16;99467.09;;;-3.58;84.23
55373;BME280;41249;47.838;16.490;2022-12-29T14:25:59;99463.28;;;-3.57;84.21
55373;BME280;41249;47.838;16.490;2022-12-29T14:28:31;99461.59;;;-3.66;84.37
55373;BME280;41249;47.838;16.490;2022-12-29T14:30:59;99471.53;;;-3.76;83.89
55373;BME280;41249;47.838;16.490;2022-12-29T14:33:29;99465.25;;;-3.90;83.87
55373;BME280;41249;47.838;16.490;2022-12-29T14:35:57;99461.22;;;-4.06;84.88
55373;BME280;41249;47.838;16.490;2022-12-29T14:38:47;99459.09;;;-4.09;85.33
55373;BME280;41249;47.838;16.490;2022-12-29T14:41:35;99451.13;;;-4.19;85.61
55373;BME280;41249;47.838;16.490;2022-12-29T14:46:49;99451.47;;;-4.39;86.44
55373;BME280;41249;47.838;16.490;2022-12-29T14:49:24;99455.41;;;-4.50;85.80
55373;BME280;41249;47.838;16.490;2022-12-29T14:51:53;99449.50;;;-4.52;86.37
55373;BME280;41249;47.838;16.490;2022-12-29T14:57:05;99464.75;;;-4.56;86.16
55373;BME280;41249;47.838;16.490;2022-12-29T14:59:33;99463.66;;;-4.55;86.80
55373;BME280;41249;47.838;16.490;2022-12-29T15:02:13;99467.75;;;-4.58;86.23
55373;BME280;41249;47.838;16.490;2022-12-29T15:04:42;99465.03;;;-4.58;85.98
55373;BME280;41249;47.838;16.490;2022-12-29T15:07:10;99472.56;;;-4.55;86.47
55373;BME280;41249;47.838;16.490;2022-12-29T15:09:46;99469.66;;;-4.58;86.26
55373;BME280;41249;47.838;16.490;2022-12-29T15:12:21;99474.03;;;-4.62;86.41